Time;durP1;ratioP1;P1;durP2;ratioP2;P2;SDS_P1;SDS_P2;PMS_P1;PMS_P2;Temp;Humidity;BMP_temperature;BMP_pressure;BME280_temperature;BME280_humidity;BME280_pressure;Samples;Min_cycle;Max_cycle;Signal;HPM_P1;HPM_P2
2022/11/02 00:02:12;;;;;;;6.80;1.33;;;13.40;99.90;;;;;;5032516;28;20060;-73
2022/11/02 00:04:38;;;;;;;4.43;1.23;;;13.30;99.90;;;;;;5043686;28;20041;-72
2022/11/02 00:07:03;;;;;;;4.15;1.00;;;13.10;99.90;;;;;;5045981;28;20077;-73
2022/11/02 00:09:29;;;;;;;6.45;1.08;;;12.90;99.90;;;;;;5043001;28;20049;-72
2022/11/02 00:11:55;;;;;;;2.75;1.02;;;12.80;99.90;;;;;;5070389;28;20056;-74
2022/11/02 00:14:21;;;;;;;7.05;1.23;;;12.70;99.90;;;;;;5080453;28;20064;-74
2022/11/02 00:16:46;;;;;;;7.22;1.40;;;12.60;99.90;;;;;;5045846;28;20087;-72
2022/11/02 00:19:12;;;;;;;1.65;1.20;;;12.60;99.90;;;;;;5047373;28;20039;-72
2022/11/02 00:21:39;;;;;;;10.63;1.45;;;12.50;99.90;;;;;;5030773;28;20076;-72
2022/11/02 00:24:05;;;;;;;6.05;1.10;;;12.50;99.90;;;;;;5039370;28;20041;-71
2022/11/02 00:26:33;;;;;;;4.18;1.10;;;12.50;99.90;;;;;;5045882;28;20115;-73
2022/11/02 00:28:59;;;;;;;4.93;1.20;;;12.50;99.90;;;;;;5044346;28;20057;-73
2022/11/02 00:31:25;;;;;;;9.27;1.73;;;12.50;99.90;;;;;;5081262;28;20482;-74
2022/11/02 00:33:51;;;;;;;7.78;1.48;;;12.50;99.90;;;;;;5051967;28;20048;-75
2022/11/02 00:36:17;;;;;;;11.18;1.27;;;12.60;99.90;;;;;;5085150;28;20041;-73
2022/11/02 00:38:42;;;;;;;9.13;1.92;;;12.60;99.90;;;;;;5052215;28;20634;-74
2022/11/02 00:41:08;;;;;;;7.05;1.60;;;12.60;99.90;;;;;;5050439;28;20398;-74
2022/11/02 00:43:34;;;;;;;9.45;2.05;;;12.60;99.90;;;;;;5052797;28;20114;-74
2022/11/02 00:46:00;;;;;;;9.27;2.05;;;12.60;99.90;;;;;;5032905;28;20060;-74
2022/11/02 00:48:25;;;;;;;;;;;12.60;99.90;;;;;;5046812;28;20056;-74
2022/11/02 00:50:51;;;;;;;3.92;0.98;;;12.60;99.90;;;;;;5048086;28;19924;-75
2022/11/02 00:53:17;;;;;;;12.35;2.28;;;12.60;99.90;;;;;;5083593;28;20072;-73
2022/11/02 00:55:43;;;;;;;8.27;1.83;;;12.70;99.90;;;;;;5047202;28;20128;-73
2022/11/02 00:58:09;;;;;;;;;;;12.70;99.90;;;;;;5051493;28;20083;-73
2022/11/02 01:00:34;;;;;;;11.43;1.80;;;12.60;99.90;;;;;;5056481;28;19956;-73
2022/11/02 01:03:01;;;;;;;11.05;1.85;;;12.60;99.90;;;;;;5081177;28;20041;-74
2022/11/02 01:05:27;;;;;;;7.47;1.33;;;12.60;99.90;;;;;;5038363;28;20427;-74
2022/11/02 01:07:53;;;;;;;3.90;1.70;;;12.60;99.90;;;;;;5078122;28;20052;-75
2022/11/02 01:10:19;;;;;;;2.80;0.98;;;12.70;99.90;;;;;;5024438;28;20045;-76
2022/11/02 01:12:44;;;;;;;5.75;1.58;;;12.70;99.90;;;;;;5046781;28;20041;-73
2022/11/02 01:15:10;;;;;;;6.82;1.42;;;12.80;99.90;;;;;;5042748;28;20493;-74
2022/11/02 01:17:36;;;;;;;5.80;2.00;;;12.90;99.90;;;;;;5035883;28;20054;-75
2022/11/02 01:20:03;;;;;;;4.93;1.55;;;13.00;99.90;;;;;;5032990;28;20136;-74
2022/11/02 01:22:30;;;;;;;12.40;2.45;;;13.00;99.90;;;;;;5034660;28;20057;-76
2022/11/02 01:24:55;;;;;;;7.13;2.13;;;13.10;99.90;;;;;;5064634;28;20045;-76
2022/11/02 01:27:21;;;;;;;7.13;1.05;;;13.10;99.90;;;;;;5036666;28;20214;-74
2022/11/02 01:29:47;;;;;;;5.88;1.45;;;13.10;99.90;;;;;;5050797;28;20052;-75
2022/11/02 01:32:13;;;;;;;10.40;1.40;;;13.10;99.90;;;;;;5052676;28;20041;-75
2022/11/02 01:34:38;;;;;;;5.60;1.35;;;13.10;99.90;;;;;;5085242;28;20048;-75
2022/11/02 01:37:04;;;;;;;14.75;2.55;;;13.10;99.90;;;;;;5050785;28;20049;-74
2022/11/02 01:39:29;;;;;;;10.05;1.95;;;13.10;99.90;;;;;;5049258;28;20060;-74
2022/11/02 01:41:55;;;;;;;3.83;1.40;;;13.20;99.90;;;;;;5050226;28;20721;-74
2022/11/02 01:44:34;;;;;;;8.65;1.73;;;13.20;99.90;;;;;;5031281;28;20834;-74
2022/11/02 01:47:04;;;;;;;12.23;2.25;;;13.20;99.90;;;;;;5049829;28;20052;-76
2022/11/02 01:49:35;;;;;;;7.30;1.50;;;13.20;99.90;;;;;;5051644;28;20387;-74
2022/11/02 01:52:11;;;;;;;12.30;2.25;;;13.10;99.90;;;;;;5052007;28;20049;-76
2022/11/02 01:54:42;;;;;;;11.23;1.98;;;13.10;99.90;;;;;;5052207;28;20045;-73
2022/11/02 01:57:12;;;;;;;10.13;2.03;;;13.10;99.90;;;;;;5049911;28;20060;-74
2022/11/02 01:59:50;;;;;;;8.65;2.28;;;13.10;99.90;;;;;;5051637;28;20053;-74
2022/11/02 02:02:19;;;;;;;6.93;1.65;;;13.10;99.90;;;;;;5039432;28;20049;-73
2022/11/02 02:04:50;;;;;;;11.20;1.50;;;13.10;99.90;;;;;;5043035;28;20044;-75
2022/11/02 02:07:16;;;;;;;6.85;1.45;;;13.10;99.90;;;;;;5029905;28;20053;-74
2022/11/02 02:09:42;;;;;;;11.63;1.75;;;13.10;99.90;;;;;;5042231;28;20128;-73
2022/11/02 02:12:08;;;;;;;7.45;1.77;;;13.10;99.90;;;;;;5049445;28;20182;-74
2022/11/02 02:14:34;;;;;;;5.90;1.98;;;13.10;99.90;;;;;;5051434;28;20154;-75
2022/11/02 02:17:25;;;;;;;5.97;1.60;;;13.10;99.90;;;;;;5050867;28;20052;-76
2022/11/02 02:19:59;;;;;;;11.27;1.60;;;13.00;99.90;;;;;;5051268;28;20049;-74
2022/11/02 02:23:00;;;;;;;5.57;1.67;;;13.00;99.90;;;;;;5029862;28;20053;-74
2022/11/02 02:25:48;;;;;;;10.35;2.60;;;13.00;99.90;;;;;;5051740;28;20049;-74
2022/11/02 02:28:33;;;;;;;8.25;1.63;;;13.10;99.90;;;;;;5072047;28;20095;-73
2022/11/02 02:31:26;;;;;;;4.85;1.40;;;13.10;99.90;;;;;;5051141;28;20490;-73
2022/11/02 02:34:12;;;;;;;6.25;1.45;;;13.00;99.90;;;;;;5050789;28;20052;-74
2022/11/02 02:37:06;;;;;;;5.35;1.50;;;13.00;99.90;;;;;;5035515;28;20052;-75
2022/11/02 02:39:42;;;;;;;5.93;1.25;;;12.90;99.90;;;;;;5030394;28;20115;-74
2022/11/02 02:42:30;;;;;;;8.20;1.87;;;12.70;99.90;;;;;;5029096;28;20060;-73
2022/11/02 02:45:33;;;;;;;8.68;1.52;;;12.60;99.90;;;;;;5030649;28;20049;-75
2022/11/02 02:48:19;;;;;;;7.63;1.70;;;12.60;99.90;;;;;;5030466;28;20042;-73
2022/11/02 02:50:48;;;;;;;5.78;1.35;;;12.50;99.90;;;;;;5082711;28;20059;-74
2022/11/02 02:53:18;;;;;;;3.90;1.10;;;12.50;99.90;;;;;;5046998;28;20053;-74
2022/11/02 02:55:46;;;;;;;9.40;1.40;;;12.50;99.90;;;;;;5049392;28;20056;-73
2022/11/02 02:58:18;;;;;;;3.25;1.20;;;12.40;99.90;;;;;;5040740;28;20420;-74
2022/11/02 03:00:44;;;;;;;1.92;1.08;;;12.50;99.90;;;;;;5030604;28;20046;-74
2022/11/02 03:03:16;;;;;;;;;;;12.40;99.90;;;;;;5030059;28;20053;-74
2022/11/02 03:05:41;;;;;;;4.28;1.30;;;12.40;99.90;;;;;;5031198;28;20390;-73
2022/11/02 03:08:12;;;;;;;10.20;1.90;;;12.30;99.90;;;;;;5045579;28;20111;-76
2022/11/02 03:10:55;;;;;;;5.57;1.52;;;12.20;99.90;;;;;;5030443;28;20056;-74
2022/11/02 03:13:39;;;;;;;2.95;1.13;;;12.20;99.90;;;;;;5029526;28;20205;-74
2022/11/02 03:16:39;;;;;;;4.97;0.88;;;12.20;99.90;;;;;;5036278;28;20064;-75
2022/11/02 03:19:21;;;;;;;3.97;0.93;;;12.20;99.90;;;;;;5049709;28;20052;-76
2022/11/02 03:21:54;;;;;;;7.57;1.30;;;12.10;99.90;;;;;;5041532;28;20055;-73
2022/11/02 03:24:26;;;;;;;4.50;0.80;;;11.90;99.90;;;;;;5031473;28;20053;-73
2022/11/02 03:27:14;;;;;;;6.45;1.02;;;11.70;99.90;;;;;;5048594;28;20151;-75
2022/11/02 03:29:54;;;;;;;2.53;0.75;;;11.60;99.90;;;;;;5050001;28;20049;-74
2022/11/02 03:32:27;;;;;;;3.08;0.90;;;11.50;99.90;;;;;;5049215;28;20059;-74
2022/11/02 03:35:00;;;;;;;6.50;1.23;;;11.50;99.90;;;;;;5049857;28;20510;-74
2022/11/02 03:37:32;;;;;;;2.35;0.73;;;11.40;99.90;;;;;;5029151;28;20664;-75
2022/11/02 03:40:16;;;;;;;3.53;1.17;;;11.30;99.90;;;;;;5029865;28;20052;-74
2022/11/02 03:42:44;;;;;;;2.28;1.08;;;11.30;99.90;;;;;;5029239;28;20060;-74
2022/11/02 03:45:17;;;;;;;1.95;0.80;;;11.30;99.90;;;;;;5029086;28;20061;-76
2022/11/02 03:47:48;;;;;;;4.22;1.05;;;11.30;99.90;;;;;;5029439;28;20045;-74
2022/11/02 03:50:17;;;;;;;3.42;0.90;;;11.30;99.90;;;;;;5048488;28;20053;-75
2022/11/02 03:52:45;;;;;;;5.72;1.00;;;11.30;99.90;;;;;;5042566;28;20135;-74
2022/11/02 03:55:16;;;;;;;2.80;1.10;;;11.20;99.90;;;;;;5029085;28;20065;-76
2022/11/02 03:57:45;;;;;;;5.07;0.80;;;11.20;99.90;;;;;;5030866;28;20047;-74
2022/11/02 04:00:19;;;;;;;8.52;1.20;;;11.20;99.90;;;;;;5045552;28;20117;-76
2022/11/02 04:02:57;;;;;;;2.78;1.02;;;11.10;99.90;;;;;;5049368;28;20052;-74
2022/11/02 04:05:34;;;;;;;3.30;0.90;;;11.20;99.90;;;;;;5045547;28;20059;-74
2022/11/02 04:16:18;;;;;;;6.18;1.00;;;11.30;99.90;;;;;;5009568;28;20049;-75
2022/11/02 04:21:28;;;;;;;2.30;1.10;;;11.30;99.90;;;;;;5039713;28;20056;-74
2022/11/02 04:26:38;;;;;;;7.32;1.70;;;11.20;99.90;;;;;;5027900;28;20056;-74
2022/11/02 04:29:05;;;;;;;7.90;1.40;;;11.20;99.90;;;;;;5038522;28;20052;-74
2022/11/02 04:31:31;;;;;;;5.80;2.03;;;11.10;99.90;;;;;;5053772;28;20053;-75
2022/11/02 04:33:59;;;;;;;5.40;1.05;;;11.20;99.90;;;;;;5058911;28;20049;-74
2022/11/02 04:36:28;;;;;;;5.22;1.00;;;11.20;99.90;;;;;;5039207;28;20037;-74
2022/11/02 04:38:54;;;;;;;5.22;1.40;;;11.20;99.90;;;;;;5027984;28;20042;-74
2022/11/02 04:44:06;;;;;;;2.20;1.13;;;11.30;99.90;;;;;;5028665;28;20760;-73
2022/11/02 04:46:34;;;;;;;4.82;1.38;;;11.20;99.90;;;;;;5032584;28;20133;-73
2022/11/02 04:49:00;;;;;;;5.35;1.60;;;11.30;99.90;;;;;;5018769;28;20053;-73
2022/11/02 04:51:28;;;;;;;4.35;1.55;;;11.30;99.90;;;;;;5032921;28;20060;-74
2022/11/02 04:53:55;;;;;;;7.63;1.13;;;11.40;99.90;;;;;;5027821;28;20049;-75
2022/11/02 04:56:21;;;;;;;7.07;1.80;;;11.40;99.90;;;;;;5027352;28;20092;-74
2022/11/02 04:58:51;;;;;;;;;;;11.40;99.90;;;;;;5031792;28;20046;-74
2022/11/02 05:01:18;;;;;;;3.85;1.27;;;11.40;99.90;;;;;;5061647;28;20011;-74
2022/11/02 05:03:49;;;;;;;5.38;1.08;;;11.40;99.90;;;;;;5028646;28;20046;-74
2022/11/02 05:06:16;;;;;;;3.58;1.23;;;11.40;99.90;;;;;;5032022;28;20483;-76
2022/11/02 05:08:41;;;;;;;9.73;1.25;;;11.30;99.90;;;;;;5044027;28;20045;-74
2022/11/02 05:11:09;;;;;;;6.28;1.67;;;11.30;99.90;;;;;;5041871;28;20436;-73
2022/11/02 05:13:35;;;;;;;3.50;1.40;;;11.30;99.90;;;;;;5052770;28;20041;-74
2022/11/02 05:16:00;;;;;;;5.95;1.55;;;11.30;99.90;;;;;;5052637;28;20103;-74
2022/11/02 05:18:27;;;;;;;5.38;1.38;;;11.30;99.90;;;;;;5085028;28;20052;-75
2022/11/02 05:20:56;;;;;;;7.63;1.33;;;11.30;99.90;;;;;;5052148;28;20052;-74
2022/11/02 05:23:22;;;;;;;4.43;1.33;;;11.30;99.90;;;;;;5050555;28;20080;-74
2022/11/02 05:25:53;;;;;;;7.63;1.55;;;11.20;99.90;;;;;;5050988;28;20064;-73
2022/11/02 05:28:18;;;;;;;5.63;1.50;;;11.30;99.90;;;;;;5051555;28;20061;-74
2022/11/02 05:30:44;;;;;;;6.13;1.42;;;11.30;99.90;;;;;;5035633;28;20441;-73
2022/11/02 05:33:10;;;;;;;6.80;1.58;;;11.40;99.90;;;;;;5053093;28;20041;-74
2022/11/02 05:35:35;;;;;;;11.02;2.10;;;11.40;99.90;;;;;;5080875;28;20041;-74
2022/11/02 05:38:01;;;;;;;4.07;1.35;;;11.40;99.90;;;;;;5055202;28;20041;-73
2022/11/02 05:40:27;;;;;;;4.15;1.45;;;11.40;99.90;;;;;;5031274;28;20049;-73
2022/11/02 05:43:00;;;;;;;3.28;1.35;;;11.50;99.90;;;;;;5032908;28;20092;-73
2022/11/02 05:45:26;;;;;;;6.00;1.55;;;11.40;99.90;;;;;;5035831;28;20045;-74
2022/11/02 05:47:52;;;;;;;10.65;1.98;;;11.30;99.90;;;;;;5052849;28;20045;-73
2022/11/02 05:50:18;;;;;;;8.85;2.08;;;11.10;99.90;;;;;;5051254;28;20499;-75
2022/11/02 05:52:44;;;;;;;3.60;1.35;;;11.00;99.90;;;;;;5050494;28;20044;-74
2022/11/02 05:55:10;;;;;;;15.48;2.20;;;10.90;99.90;;;;;;5051351;28;20482;-74
2022/11/02 05:57:35;;;;;;;12.02;2.20;;;10.90;99.90;;;;;;5049957;28;20076;-74
2022/11/02 06:00:05;;;;;;;6.68;1.92;;;10.80;99.90;;;;;;5035029;28;20052;-74
2022/11/02 06:02:32;;;;;;;14.18;2.17;;;10.80;99.90;;;;;;5045094;28;20052;-75
2022/11/02 06:04:58;;;;;;;9.15;1.80;;;10.80;99.90;;;;;;5038152;28;20053;-75
2022/11/02 06:07:24;;;;;;;4.60;1.58;;;10.80;99.90;;;;;;5049960;28;20482;-75
2022/11/02 06:09:49;;;;;;;10.68;1.70;;;10.70;99.90;;;;;;5074597;28;20077;-76
2022/11/02 06:12:15;;;;;;;10.55;2.20;;;10.70;99.90;;;;;;5083796;28;20439;-75
2022/11/02 06:14:40;;;;;;;12.07;2.15;;;10.80;99.90;;;;;;5050771;28;20045;-75
2022/11/02 06:17:06;;;;;;;9.85;2.17;;;11.00;99.90;;;;;;5050982;28;20048;-75
2022/11/02 06:19:32;;;;;;;7.03;2.00;;;10.80;99.90;;;;;;5050554;28;20048;-75
2022/11/02 06:21:57;;;;;;;17.17;2.60;;;10.90;99.90;;;;;;5033915;28;20081;-75
2022/11/02 06:24:23;;;;;;;3.40;1.35;;;10.90;99.90;;;;;;5062614;28;20084;-75
2022/11/02 06:26:49;;;;;;;4.80;1.77;;;10.90;99.90;;;;;;5042102;28;20061;-76
2022/11/02 06:29:14;;;;;;;11.63;2.28;;;10.90;99.90;;;;;;5014483;28;20085;-76
2022/11/02 06:31:40;;;;;;;6.50;1.90;;;10.90;99.90;;;;;;5030488;28;20675;-76
2022/11/02 06:34:06;;;;;;;12.45;1.70;;;10.90;99.90;;;;;;5030918;28;20051;-75
2022/11/02 06:36:32;;;;;;;7.32;2.42;;;10.90;99.90;;;;;;5044138;28;20057;-76
2022/11/02 06:38:57;;;;;;;13.82;3.05;;;10.90;99.90;;;;;;5063065;28;20051;-76
2022/11/02 06:41:23;;;;;;;4.55;1.50;;;10.90;99.90;;;;;;5029140;28;20056;-77
2022/11/02 06:43:48;;;;;;;5.03;1.90;;;10.80;99.90;;;;;;5033460;28;20124;-77
2022/11/02 06:46:14;;;;;;;4.07;1.77;;;10.80;99.90;;;;;;5049680;28;20056;-77
2022/11/02 06:48:40;;;;;;;20.30;3.95;;;10.80;99.90;;;;;;5082603;28;20048;-77
2022/11/02 06:51:06;;;;;;;7.78;1.58;;;10.70;99.90;;;;;;5033009;28;20466;-77
2022/11/02 06:53:32;;;;;;;17.17;2.25;;;10.70;99.90;;;;;;5034438;28;20052;-76
2022/11/02 06:55:59;;;;;;;9.18;2.03;;;10.60;99.90;;;;;;5050587;28;20056;-78
2022/11/02 06:58:25;;;;;;;13.05;2.33;;;10.60;99.90;;;;;;5076251;28;20116;-75
2022/11/02 07:00:57;;;;;;;9.77;2.50;;;10.60;99.90;;;;;;5049740;28;20068;-77
2022/11/02 07:03:23;;;;;;;7.55;2.17;;;10.60;99.90;;;;;;5049883;28;20052;-76
2022/11/02 07:05:50;;;;;;;8.90;2.42;;;10.60;99.90;;;;;;5046982;28;20064;-78
2022/11/02 07:08:16;;;;;;;7.78;1.92;;;10.60;99.90;;;;;;5041203;28;20053;-77
2022/11/02 07:10:42;;;;;;;7.30;2.45;;;10.60;99.90;;;;;;5048458;28;20056;-77
2022/11/02 07:13:07;;;;;;;11.95;1.90;;;10.60;99.90;;;;;;5060581;28;20045;-77
2022/11/02 07:15:33;;;;;;;14.02;1.98;;;10.60;99.90;;;;;;5032070;28;20094;-77
2022/11/02 07:17:59;;;;;;;7.03;2.10;;;10.60;99.90;;;;;;5047092;28;20049;-77
2022/11/02 07:20:24;;;;;;;7.95;2.00;;;10.60;99.90;;;;;;5030359;28;20049;-78
2022/11/02 07:22:55;;;;;;;7.78;1.75;;;10.60;99.90;;;;;;5029723;28;20049;-77
2022/11/02 07:25:20;;;;;;;14.32;2.28;;;10.60;99.90;;;;;;5045293;28;20045;-78
2022/11/02 07:27:46;;;;;;;5.55;1.75;;;10.80;99.90;;;;;;5031344;28;20064;-78
2022/11/02 07:30:12;;;;;;;5.97;1.40;;;10.70;99.90;;;;;;5030099;28;20471;-77
2022/11/02 07:32:39;;;;;;;9.75;1.90;;;10.80;99.90;;;;;;5029136;28;20144;-78
2022/11/02 07:35:07;;;;;;;7.28;1.98;;;10.90;99.90;;;;;;5030017;28;20045;-77
2022/11/02 07:37:33;;;;;;;16.70;2.97;;;11.00;99.90;;;;;;5027690;28;20411;-77
2022/11/02 07:39:59;;;;;;;8.52;1.85;;;11.10;99.90;;;;;;5033644;28;20119;-78
2022/11/02 07:42:24;;;;;;;7.05;2.25;;;11.20;99.90;;;;;;5046902;28;20045;-78
2022/11/02 07:44:50;;;;;;;9.57;2.22;;;11.30;99.90;;;;;;5050422;28;20501;-77
2022/11/02 07:47:16;;;;;;;13.43;2.25;;;11.30;99.90;;;;;;5041430;28;20541;-78
2022/11/02 07:49:41;;;;;;;12.07;2.58;;;11.40;99.90;;;;;;5034919;28;20053;-78
2022/11/02 07:52:07;;;;;;;7.18;1.45;;;11.40;99.90;;;;;;5048844;28;20049;-79
2022/11/02 07:54:33;;;;;;;3.80;1.48;;;11.50;99.90;;;;;;5049242;28;20045;-78
2022/11/02 07:56:58;;;;;;;7.07;1.38;;;11.50;99.90;;;;;;5049343;28;20055;-76
2022/11/02 07:59:24;;;;;;;8.35;2.13;;;11.60;99.90;;;;;;5049210;28;20048;-76
2022/11/02 08:01:50;;;;;;;8.10;1.40;;;11.70;99.90;;;;;;5048712;28;20107;-75
2022/11/02 08:04:15;;;;;;;5.03;1.48;;;11.60;99.90;;;;;;5049088;28;20052;-76
2022/11/02 08:06:41;;;;;;;12.70;1.95;;;11.70;99.90;;;;;;5065249;28;20064;-77
2022/11/02 08:09:07;;;;;;;5.35;1.50;;;11.70;99.90;;;;;;5059249;28;20128;-74
2022/11/02 08:11:32;;;;;;;11.23;1.30;;;11.70;99.90;;;;;;5038630;28;20475;-74
2022/11/02 08:13:58;;;;;;;5.40;1.58;;;11.70;99.90;;;;;;5065059;28;20041;-77
2022/11/02 08:16:23;;;;;;;8.07;1.63;;;11.70;99.90;;;;;;5037135;28;20046;-76
2022/11/02 08:18:49;;;;;;;7.13;1.52;;;11.70;99.90;;;;;;5017163;28;20052;-76
2022/11/02 08:21:15;;;;;;;5.47;1.50;;;11.80;99.90;;;;;;5041232;28;20066;-77
2022/11/02 08:23:40;;;;;;;10.88;1.45;;;11.80;99.90;;;;;;5015969;28;20395;-76
2022/11/02 08:26:06;;;;;;;8.73;1.77;;;11.80;99.90;;;;;;5030551;28;20453;-76
2022/11/02 08:28:38;;;;;;;10.13;1.35;;;11.90;99.90;;;;;;5036817;28;20059;-77
2022/11/02 08:31:06;;;;;;;3.45;1.23;;;11.90;99.90;;;;;;5030254;28;20049;-76
2022/11/02 08:33:32;;;;;;;12.10;2.50;;;11.90;99.90;;;;;;5027185;28;20091;-77
2022/11/02 08:36:03;;;;;;;6.60;1.38;;;11.90;99.90;;;;;;5047415;28;20045;-77
2022/11/02 08:38:29;;;;;;;5.38;1.30;;;11.90;99.90;;;;;;5081602;28;20045;-77
2022/11/02 08:40:55;;;;;;;6.03;1.20;;;11.90;99.90;;;;;;5048732;28;20041;-76
2022/11/02 08:43:21;;;;;;;5.82;1.30;;;11.90;99.90;;;;;;5040589;28;20063;-77
2022/11/02 08:45:46;;;;;;;5.25;1.40;;;12.00;99.90;;;;;;5044312;28;20051;-75
2022/11/02 08:48:12;;;;;;;4.93;1.52;;;11.90;99.90;;;;;;5041849;28;20052;-77
2022/11/02 08:50:38;;;;;;;4.53;1.65;;;11.90;99.90;;;;;;5031339;28;20056;-77
2022/11/02 08:53:04;;;;;;;4.15;0.93;;;11.80;99.90;;;;;;5034637;28;20056;-76
2022/11/02 08:55:31;;;;;;;14.35;1.85;;;11.80;99.90;;;;;;5031975;28;20052;-79
2022/11/02 08:57:57;;;;;;;;;;;11.80;99.90;;;;;;5040793;28;20052;-76
2022/11/02 09:00:26;;;;;;;7.65;1.42;;;11.90;99.90;;;;;;5065869;28;19928;-76
2022/11/02 09:03:12;;;;;;;12.27;1.88;;;11.90;99.90;;;;;;5031436;28;20041;-76
2022/11/02 09:05:46;;;;;;;7.47;1.40;;;12.00;99.90;;;;;;5031299;28;20057;-76
2022/11/02 09:08:15;;;;;;;5.30;1.52;;;12.10;99.90;;;;;;5036959;28;20294;-76
2022/11/02 09:10:41;;;;;;;5.43;1.02;;;12.20;99.90;;;;;;5045215;28;20152;-76
2022/11/02 09:13:10;;;;;;;6.47;1.73;;;12.30;99.90;;;;;;5032055;28;20129;-76
2022/11/02 09:15:36;;;;;;;7.97;1.27;;;12.40;99.90;;;;;;5032729;28;20044;-77
2022/11/02 09:18:03;;;;;;;5.40;1.27;;;12.40;99.90;;;;;;5045685;28;20072;-75
2022/11/02 09:20:29;;;;;;;7.35;1.05;;;12.50;99.90;;;;;;5032749;28;20050;-76
2022/11/02 09:22:55;;;;;;;4.72;1.05;;;12.50;99.90;;;;;;5031343;28;20124;-76
2022/11/02 09:25:22;;;;;;;5.88;1.08;;;12.50;99.90;;;;;;5031943;28;20526;-77
2022/11/02 09:27:52;;;;;;;3.72;1.10;;;12.50;99.90;;;;;;5030288;28;20057;-73
2022/11/02 09:30:19;;;;;;;5.90;1.70;;;12.50;99.90;;;;;;5031940;28;20111;-78
2022/11/02 09:32:51;;;;;;;6.70;1.08;;;12.60;99.90;;;;;;5030860;28;20045;-77
2022/11/02 09:35:17;;;;;;;8.32;1.67;;;12.60;99.90;;;;;;5074396;28;20065;-74
2022/11/02 09:37:43;;;;;;;7.88;1.85;;;12.70;99.90;;;;;;5041123;28;20059;-75
2022/11/02 09:40:10;;;;;;;9.10;1.90;;;12.80;99.90;;;;;;5037113;28;20103;-76
2022/11/02 09:43:07;;;;;;;5.88;1.27;;;12.80;99.90;;;;;;5075858;28;20045;-75
2022/11/02 09:45:38;;;;;;;6.25;2.25;;;12.80;99.90;;;;;;5033330;28;20045;-76
2022/11/02 09:48:08;;;;;;;8.80;1.35;;;12.80;99.90;;;;;;5047432;28;20390;-77
2022/11/02 09:50:49;;;;;;;5.10;1.35;;;12.80;99.90;;;;;;5039598;28;20048;-78
2022/11/02 09:53:21;;;;;;;6.40;1.38;;;12.90;99.90;;;;;;5030330;28;20095;-77
2022/11/02 09:55:58;;;;;;;3.80;1.15;;;13.10;99.90;;;;;;5029290;28;20140;-77
2022/11/02 09:58:33;;;;;;;17.67;2.10;;;13.30;99.90;;;;;;5041626;28;20081;-77
2022/11/02 10:01:04;;;;;;;7.68;1.45;;;13.30;99.90;;;;;;5030776;28;20044;-77
2022/11/02 10:03:46;;;;;;;11.20;1.70;;;13.40;99.90;;;;;;5030607;28;20099;-77
2022/11/02 10:06:20;;;;;;;8.52;1.50;;;13.40;99.90;;;;;;5057387;28;20080;-77
2022/11/02 10:08:54;;;;;;;6.97;1.55;;;13.40;99.90;;;;;;5040607;28;20113;-78
2022/11/02 10:11:45;;;;;;;7.25;1.33;;;13.40;99.90;;;;;;5029789;28;20049;-77
2022/11/02 10:14:34;;;;;;;8.73;1.73;;;13.40;99.90;;;;;;5030746;28;20056;-77
2022/11/02 10:17:15;;;;;;;6.30;1.30;;;13.30;99.90;;;;;;5030199;28;20112;-77
2022/11/02 10:19:46;;;;;;;5.53;1.35;;;13.30;99.90;;;;;;5030119;28;20042;-77
2022/11/02 10:22:14;;;;;;;4.90;1.00;;;13.30;99.90;;;;;;5029896;28;20057;-77
2022/11/02 10:24:45;;;;;;;9.32;1.48;;;13.40;99.90;;;;;;5029710;28;20084;-78
2022/11/02 10:27:22;;;;;;;4.18;1.40;;;13.50;99.90;;;;;;5024615;28;20057;-77
2022/11/02 10:29:53;;;;;;;;;;;13.70;99.90;;;;;;5042297;28;20119;-78
2022/11/02 10:32:19;;;;;;;10.88;2.08;;;13.80;99.90;;;;;;5067635;28;19931;-77
2022/11/02 10:34:45;;;;;;;10.23;1.63;;;13.90;99.90;;;;;;5045731;28;20041;-77
2022/11/02 10:37:43;;;;;;;7.13;1.48;;;14.00;99.90;;;;;;5045745;28;20489;-78
2022/11/02 10:40:14;;;;;;;7.32;1.10;;;14.20;99.90;;;;;;5078707;28;20053;-77
2022/11/02 10:42:55;;;;;;;15.13;2.20;;;14.50;99.90;;;;;;5039511;28;20101;-78
2022/11/02 10:45:46;;;;;;;6.22;1.42;;;14.70;99.90;;;;;;5029870;28;20105;-77
2022/11/02 10:48:49;;;;;;;3.33;1.23;;;14.70;99.90;;;;;;5049015;28;20053;-77
2022/11/02 10:51:16;;;;;;;6.97;1.20;;;14.60;99.90;;;;;;5072493;28;20063;-77
2022/11/02 10:53:48;;;;;;;7.93;1.20;;;14.50;99.90;;;;;;5082145;28;20096;-79
2022/11/02 10:56:27;;;;;;;8.07;1.45;;;14.40;99.90;;;;;;5041228;28;20093;-78
2022/11/02 10:59:01;;;;;;;5.10;1.25;;;14.60;99.90;;;;;;5029600;28;20045;-77
2022/11/02 11:01:29;;;;;;;5.28;1.15;;;15.00;99.90;;;;;;5076972;28;20064;-77
2022/11/02 11:03:57;;;;;;;4.15;1.20;;;15.30;99.90;;;;;;5068927;28;20079;-78
2022/11/02 11:06:34;;;;;;;5.90;1.38;;;15.40;99.90;;;;;;5036716;28;20107;-80
2022/11/02 11:09:04;;;;;;;7.20;1.05;;;15.30;99.90;;;;;;5030723;28;20048;-77
2022/11/02 11:11:36;;;;;;;8.45;1.90;;;15.30;99.90;;;;;;5044919;28;20183;-77
2022/11/02 11:14:06;;;;;;;8.82;1.65;;;15.50;99.90;;;;;;5043429;28;20060;-76
2022/11/02 11:16:44;;;;;;;7.68;1.52;;;16.00;99.90;;;;;;5055107;28;20066;-78
2022/11/02 11:19:40;;;;;;;4.35;1.00;;;16.40;99.90;;;;;;5045837;28;20037;-77
2022/11/02 11:22:39;;;;;;;2.63;1.00;;;16.30;99.90;;;;;;5041168;28;20057;-76
2022/11/02 11:25:21;;;;;;;7.25;1.58;;;16.70;99.90;;;;;;5038448;28;20049;-75
2022/11/02 11:27:50;;;;;;;7.15;1.50;;;17.20;99.90;;;;;;5044262;28;20049;-77
2022/11/02 11:30:27;;;;;;;5.47;1.17;;;17.40;99.90;;;;;;5042138;28;20058;-77
2022/11/02 11:32:54;;;;;;;6.28;1.00;;;17.50;99.90;;;;;;5033260;28;20092;-76
2022/11/02 11:35:21;;;;;;;6.03;1.40;;;17.00;99.90;;;;;;5072305;28;20060;-77
2022/11/02 11:37:56;;;;;;;9.27;1.13;;;16.70;99.90;;;;;;5037936;28;20051;-77
2022/11/02 11:40:23;;;;;;;7.18;1.10;;;16.40;99.90;;;;;;5041440;28;20144;-78
2022/11/02 11:42:52;;;;;;;5.88;1.02;;;16.30;99.90;;;;;;5048268;28;20052;-76
2022/11/02 11:45:25;;;;;;;6.55;1.00;;;16.80;99.90;;;;;;5040813;28;20072;-76
2022/11/02 11:47:59;;;;;;;4.10;1.13;;;16.80;99.90;;;;;;5048109;28;20099;-75
2022/11/02 11:50:25;;;;;;;9.23;1.00;;;16.50;99.90;;;;;;5048128;28;20398;-76
2022/11/02 11:53:20;;;;;;;8.93;1.60;;;16.00;99.90;;;;;;5047141;28;20052;-76
2022/11/02 11:55:51;;;;;;;4.28;1.10;;;15.70;99.90;;;;;;5031594;28;20057;-77
2022/11/02 11:58:21;;;;;;;3.28;1.05;;;15.30;99.90;;;;;;5031993;28;20049;-76
2022/11/02 12:01:10;;;;;;;9.57;1.23;;;15.10;99.90;;;;;;5057974;28;20475;-78
2022/11/02 12:03:54;;;;;;;6.57;1.00;;;15.00;99.90;;;;;;5040141;28;20052;-76
2022/11/02 12:06:29;;;;;;;16.23;1.92;;;15.20;99.90;;;;;;5076842;28;20067;-76
2022/11/02 12:09:20;;;;;;;4.35;1.00;;;16.00;99.90;;;;;;5026541;28;20045;-76
2022/11/02 12:12:27;;;;;;;3.40;1.13;;;17.00;99.90;;;;;;5033961;28;20499;-77
2022/11/02 12:15:26;;;;;;;7.18;1.30;;;16.70;99.90;;;;;;5074085;28;20048;-75
2022/11/02 12:18:45;;;;;;;5.78;1.50;;;16.10;99.90;;;;;;5045481;28;20146;-76
2022/11/02 12:21:19;;;;;;;6.88;1.25;;;16.00;99.90;;;;;;4990834;28;20189;-76
2022/11/02 12:24:10;;;;;;;4.32;1.00;;;16.60;99.90;;;;;;5075888;28;20491;-76
2022/11/02 12:26:51;;;;;;;4.55;1.20;;;17.80;97.30;;;;;;5027578;28;20062;-76
2022/11/02 12:29:45;;;;;;;6.22;1.15;;;19.10;99.90;;;;;;5068607;28;20063;-76
2022/11/02 12:32:28;;;;;;;6.78;1.20;;;20.40;84.00;;;;;;5027792;28;20053;-76
2022/11/02 12:35:04;;;;;;;4.75;1.20;;;20.20;84.70;;;;;;5072227;28;20501;-77
2022/11/02 12:38:10;;;;;;;6.40;1.33;;;19.30;93.40;;;;;;5033575;28;20045;-76
2022/11/02 12:40:58;;;;;;;8.52;1.75;;;18.20;81.50;;;;;;5047640;28;20045;-76
2022/11/02 12:43:43;;;;;;;6.50;1.23;;;17.70;96.60;;;;;;5081845;28;20049;-75
2022/11/02 12:46:35;;;;;;;6.13;1.05;;;17.40;98.60;;;;;;5080766;28;20658;-76
2022/11/02 12:49:38;;;;;;;14.38;1.92;;;16.90;96.50;;;;;;5076226;28;20046;-75
2022/11/02 12:52:21;;;;;;;8.32;1.38;;;16.40;99.80;;;;;;5042905;28;20048;-78
2022/11/02 12:54:55;;;;;;;3.75;1.20;;;17.30;99.70;;;;;;5043383;28;20083;-78
2022/11/02 12:57:23;;;;;;;7.55;1.33;;;17.90;96.80;;;;;;5044536;28;20079;-76
2022/11/02 13:00:20;;;;;;;6.80;1.35;;;17.60;98.60;;;;;;5030696;28;20484;-77
2022/11/02 13:03:03;;;;;;;6.10;1.38;;;17.00;91.10;;;;;;5041854;28;20052;-77
2022/11/02 13:05:34;;;;;;;22.35;1.77;;;17.50;94.10;;;;;;5032634;28;20049;-76
2022/11/02 13:08:12;;;;;;;6.32;1.05;;;18.20;97.80;;;;;;5032656;28;20112;-77
2022/11/02 13:10:55;;;;;;;4.15;1.20;;;19.30;90.60;;;;;;5041350;28;20057;-76
2022/11/02 13:13:52;;;;;;;5.70;1.40;;;20.80;81.20;;;;;;5028413;28;20096;-74
2022/11/02 13:16:24;;;;;;;4.80;1.15;;;21.30;71.10;;;;;;5068613;28;20118;-75
2022/11/02 13:18:53;;;;;;;5.68;0.95;;;21.40;74.10;;;;;;5031903;28;20138;-76
2022/11/02 13:21:34;;;;;;;3.58;1.13;;;21.90;71.10;;;;;;5029515;28;20060;-75
2022/11/02 13:24:00;;;;;;;3.85;0.95;;;22.40;66.80;;;;;;5039099;28;20157;-75
2022/11/02 13:26:36;;;;;;;5.25;1.02;;;22.60;72.80;;;;;;5074121;28;20124;-75